Time;durP1;ratioP1;P1;durP2;ratioP2;P2;SDS_P1;SDS_P2;PMS_P1;PMS_P2;Temp;Humidity;BMP_temperature;BMP_pressure;BME280_temperature;BME280_humidity;BME280_pressure;Samples;Min_cycle;Max_cycle;Signal;HPM_P1;HPM_P2
2023/08/06 00:02:38;;;;;;;8.15;5.57;;;19.70;99.90;;;;;;4983425;28;20054;-69
2023/08/06 00:05:24;;;;;;;6.65;5.20;;;19.70;99.90;;;;;;4992421;28;20185;-68
2023/08/06 00:08:10;;;;;;;6.97;5.35;;;19.70;99.90;;;;;;4989997;28;20042;-68
2023/08/06 00:10:56;;;;;;;6.88;5.22;;;19.60;99.90;;;;;;4975885;28;20400;-68
2023/08/06 00:13:42;;;;;;;7.25;5.22;;;19.60;99.90;;;;;;4990200;28;20077;-68
2023/08/06 00:16:28;;;;;;;8.65;5.22;;;19.60;99.90;;;;;;4992468;28;20042;-69
2023/08/06 00:19:14;;;;;;;7.95;5.80;;;19.60;99.90;;;;;;4976757;28;20133;-67
2023/08/06 00:22:01;;;;;;;7.65;5.38;;;19.60;99.90;;;;;;4973450;28;20050;-67
2023/08/06 00:24:47;;;;;;;7.55;4.85;;;19.60;99.90;;;;;;4991337;28;20034;-67
2023/08/06 00:27:33;;;;;;;9.63;5.28;;;19.60;99.90;;;;;;4986874;28;20081;-67
2023/08/06 00:30:19;;;;;;;9.93;5.40;;;19.60;99.90;;;;;;4990221;28;20039;-67
2023/08/06 00:33:05;;;;;;;6.68;5.32;;;19.60;99.90;;;;;;4988662;28;20522;-67
2023/08/06 00:35:51;;;;;;;7.80;5.05;;;19.60;99.90;;;;;;4983148;28;20445;-68
2023/08/06 00:38:37;;;;;;;6.22;4.93;;;19.60;99.90;;;;;;4987463;28;20054;-67
2023/08/06 00:41:23;;;;;;;8.20;5.00;;;19.60;99.90;;;;;;4990215;28;20254;-69
2023/08/06 00:44:09;;;;;;;9.40;5.53;;;19.60;99.90;;;;;;4990700;28;20150;-68
2023/08/06 00:46:55;;;;;;;7.88;4.85;;;19.60;99.90;;;;;;4989227;28;20061;-67
2023/08/06 00:49:41;;;;;;;6.90;5.07;;;19.60;99.90;;;;;;4990812;28;20331;-68
2023/08/06 00:52:27;;;;;;;6.50;4.93;;;19.50;99.90;;;;;;4988811;28;20122;-69
2023/08/06 00:55:13;;;;;;;6.80;5.10;;;19.50;99.90;;;;;;4978576;28;20074;-69
2023/08/06 00:58:00;;;;;;;6.97;5.57;;;19.50;99.90;;;;;;4988490;28;20050;-69
2023/08/06 01:00:46;;;;;;;6.82;4.57;;;19.50;99.90;;;;;;4990040;28;20048;-69
2023/08/06 01:03:32;;;;;;;7.47;4.90;;;19.50;99.90;;;;;;4989955;28;20121;-69
2023/08/06 01:06:23;;;;;;;8.80;5.57;;;19.50;99.90;;;;;;4989278;28;20050;-69
2023/08/06 01:09:42;;;;;;;7.05;5.30;;;19.50;99.90;;;;;;4981618;28;20109;-69
2023/08/06 01:13:05;;;;;;;6.22;4.72;;;19.50;99.90;;;;;;4956102;28;20042;-68
2023/08/06 01:15:58;;;;;;;7.20;5.10;;;19.40;99.90;;;;;;4990485;28;20042;-68
2023/08/06 01:18:49;;;;;;;5.68;4.28;;;19.40;99.90;;;;;;4988924;28;20403;-68
2023/08/06 01:21:35;;;;;;;6.70;5.10;;;19.40;99.90;;;;;;4987502;28;20554;-68
2023/08/06 01:24:21;;;;;;;8.32;5.10;;;19.40;99.90;;;;;;4982560;28;20043;-68
2023/08/06 01:27:14;;;;;;;6.20;4.80;;;19.40;99.90;;;;;;4983808;28;20543;-68
2023/08/06 01:30:11;;;;;;;5.93;4.78;;;19.30;99.90;;;;;;4991036;28;20035;-68
2023/08/06 01:33:05;;;;;;;7.60;4.90;;;19.30;99.90;;;;;;4989967;28;20389;-68
2023/08/06 01:35:53;;;;;;;5.38;4.72;;;19.30;99.90;;;;;;4988639;28;20041;-68
2023/08/06 01:38:39;;;;;;;6.60;5.00;;;19.30;99.90;;;;;;4987837;28;20735;-68
2023/08/06 01:41:25;;;;;;;6.00;4.63;;;19.30;99.90;;;;;;4973602;28;20068;-68
2023/08/06 01:44:11;;;;;;;6.05;4.43;;;19.30;99.90;;;;;;4987495;28;20042;-68
2023/08/06 01:46:57;;;;;;;7.32;4.85;;;19.20;99.90;;;;;;4990322;28;20134;-68
2023/08/06 01:49:43;;;;;;;7.70;4.93;;;19.20;99.90;;;;;;4988610;28;20038;-68
2023/08/06 01:52:29;;;;;;;5.78;4.93;;;19.20;99.90;;;;;;4989551;28;20039;-68
2023/08/06 01:55:15;;;;;;;6.85;4.60;;;19.20;99.90;;;;;;4986412;28;20038;-68
2023/08/06 01:58:01;;;;;;;6.05;5.00;;;19.10;99.90;;;;;;4978957;28;20073;-68
2023/08/06 02:00:47;;;;;;;6.50;5.35;;;19.10;99.90;;;;;;4988501;28;20035;-68
2023/08/06 02:03:33;;;;;;;5.85;4.55;;;19.20;99.90;;;;;;4986302;28;20096;-68
2023/08/06 02:06:19;;;;;;;8.38;5.20;;;19.10;99.90;;;;;;4989263;28;20053;-68
2023/08/06 02:09:05;;;;;;;7.18;5.05;;;19.10;99.90;;;;;;4986758;28;20066;-68
2023/08/06 02:11:51;;;;;;;9.13;6.05;;;19.10;99.90;;;;;;4988267;28;20484;-68
2023/08/06 02:14:37;;;;;;;7.00;5.55;;;19.10;99.90;;;;;;4982430;28;20502;-68
2023/08/06 02:17:23;;;;;;;6.38;5.22;;;19.00;99.90;;;;;;4988520;28;20043;-68
2023/08/06 02:20:09;;;;;;;6.50;5.63;;;19.00;99.90;;;;;;4987849;28;20141;-69
2023/08/06 02:22:55;;;;;;;7.82;5.80;;;19.00;99.90;;;;;;4988558;28;20132;-68
2023/08/06 02:25:41;;;;;;;7.00;5.22;;;19.00;99.90;;;;;;4989220;28;20042;-68
2023/08/06 02:28:28;;;;;;;6.53;5.53;;;19.00;99.90;;;;;;4985486;28;20042;-68
2023/08/06 02:31:14;;;;;;;7.15;5.57;;;18.90;99.90;;;;;;4985426;28;20089;-68
2023/08/06 02:34:00;;;;;;;7.38;5.25;;;19.00;99.90;;;;;;4986884;28;20065;-68
2023/08/06 02:36:46;;;;;;;5.95;4.80;;;18.90;99.90;;;;;;4990127;28;20116;-68
2023/08/06 02:39:33;;;;;;;7.55;5.63;;;18.90;99.90;;;;;;4989000;28;20050;-68
2023/08/06 02:42:19;;;;;;;7.45;5.13;;;18.90;99.90;;;;;;4989831;28;20458;-69
2023/08/06 02:45:05;;;;;;;7.43;5.05;;;18.90;99.90;;;;;;4989602;28;20145;-69
2023/08/06 02:47:51;;;;;;;8.80;5.28;;;18.90;99.90;;;;;;4988393;28;20511;-68
2023/08/06 02:50:39;;;;;;;7.65;4.88;;;18.90;99.90;;;;;;4988648;28;20038;-68
2023/08/06 02:53:25;;;;;;;6.20;4.72;;;18.90;99.90;;;;;;4986968;28;20089;-68
2023/08/06 02:56:11;;;;;;;7.07;4.80;;;18.80;99.90;;;;;;4988981;28;20044;-68
2023/08/06 02:58:57;;;;;;;5.50;4.50;;;18.80;99.90;;;;;;4970080;28;20046;-68
2023/08/06 03:01:42;;;;;;;7.85;3.90;;;18.80;99.90;;;;;;4987345;28;20050;-68
2023/08/06 03:04:28;;;;;;;5.38;4.72;;;18.80;99.90;;;;;;4987857;28;20038;-68
2023/08/06 03:07:14;;;;;;;5.45;4.45;;;18.80;99.90;;;;;;4987237;28;20050;-68
2023/08/06 03:10:01;;;;;;;6.85;4.35;;;18.80;99.90;;;;;;4978543;28;20447;-68
2023/08/06 03:12:47;;;;;;;6.97;3.85;;;18.70;99.90;;;;;;4973574;28;20134;-68
2023/08/06 03:15:35;;;;;;;4.43;3.90;;;18.80;99.90;;;;;;4992105;28;20038;-68
2023/08/06 03:18:21;;;;;;;5.32;4.30;;;18.70;99.90;;;;;;4978840;28;20411;-68
2023/08/06 03:21:07;;;;;;;5.40;4.15;;;18.70;99.90;;;;;;4990954;28;20125;-68
2023/08/06 04:49:42;;;;;;;7.10;4.95;;;18.60;99.90;;;;;;4966290;28;20050;-66
2023/08/06 04:52:28;;;;;;;6.28;4.82;;;18.50;99.90;;;;;;4984088;28;20042;-67
2023/08/06 04:55:14;;;;;;;6.35;4.82;;;18.60;99.90;;;;;;4987547;28;20038;-67
2023/08/06 04:58:00;;;;;;;7.80;5.25;;;18.60;99.90;;;;;;4979583;28;20061;-67
2023/08/06 05:00:46;;;;;;;6.50;4.80;;;18.60;99.90;;;;;;4977422;28;20061;-66
2023/08/06 05:03:32;;;;;;;5.45;4.68;;;18.60;99.90;;;;;;4967729;28;20451;-66
2023/08/06 05:06:18;;;;;;;6.00;4.75;;;18.60;99.90;;;;;;4985237;28;20129;-65
2023/08/06 05:09:05;;;;;;;6.22;4.75;;;18.60;99.90;;;;;;4981505;28;20059;-65
2023/08/06 05:11:51;;;;;;;5.80;4.65;;;18.60;99.90;;;;;;4989921;28;20050;-65
2023/08/06 05:14:37;;;;;;;5.90;4.40;;;18.60;99.90;;;;;;4980882;28;20043;-65
2023/08/06 05:17:24;;;;;;;6.57;5.07;;;18.60;99.90;;;;;;4981725;28;20393;-66
2023/08/06 05:20:10;;;;;;;5.90;4.43;;;18.70;99.90;;;;;;4980670;28;20050;-66
2023/08/06 05:22:56;;;;;;;5.55;4.60;;;18.70;99.90;;;;;;4982423;28;20161;-66
2023/08/06 05:25:42;;;;;;;5.30;4.07;;;18.70;99.90;;;;;;4984820;28;20042;-66
2023/08/06 05:28:28;;;;;;;6.75;4.60;;;18.70;99.90;;;;;;4987877;28;20455;-66
2023/08/06 05:31:14;;;;;;;6.32;4.53;;;18.70;99.90;;;;;;4979415;28;20049;-66
2023/08/06 05:34:01;;;;;;;6.43;4.32;;;18.80;99.90;;;;;;4989557;28;20046;-67
2023/08/06 05:36:47;;;;;;;5.90;4.25;;;18.80;99.90;;;;;;4990087;28;20050;-67
2023/08/06 05:39:33;;;;;;;6.90;5.25;;;18.80;99.90;;;;;;4985160;28;20045;-66
2023/08/06 05:42:19;;;;;;;6.15;4.43;;;18.80;99.90;;;;;;4984957;28;20153;-66
2023/08/06 05:45:05;;;;;;;5.82;4.55;;;18.80;99.90;;;;;;4987853;28;20038;-67
2023/08/06 05:47:51;;;;;;;5.43;4.47;;;18.90;99.90;;;;;;4983092;28;20112;-66
2023/08/06 05:50:37;;;;;;;7.40;4.72;;;18.90;99.90;;;;;;4987727;28;20088;-67
2023/08/06 05:53:23;;;;;;;6.95;4.93;;;18.90;99.90;;;;;;4989512;28;20050;-67
2023/08/06 05:56:09;;;;;;;6.80;5.20;;;18.90;99.90;;;;;;4988738;28;20038;-67
2023/08/06 05:58:55;;;;;;;5.93;4.78;;;18.90;99.90;;;;;;4984661;28;20046;-68
2023/08/06 06:01:40;;;;;;;7.50;5.75;;;18.90;99.90;;;;;;4987754;28;20124;-65
2023/08/06 06:04:28;;;;;;;6.60;5.38;;;18.90;99.90;;;;;;4986637;28;20038;-66
2023/08/06 06:07:14;;;;;;;7.53;5.35;;;18.90;99.90;;;;;;4990790;28;20085;-66
2023/08/06 06:10:00;;;;;;;5.85;4.63;;;18.90;99.90;;;;;;4989311;28;20061;-66
2023/08/06 06:12:46;;;;;;;6.18;5.10;;;19.00;99.90;;;;;;4987207;28;20054;-65
2023/08/06 06:15:32;;;;;;;8.75;4.97;;;19.00;99.90;;;;;;4976337;28;20100;-65
2023/08/06 06:18:18;;;;;;;6.93;5.10;;;19.00;99.90;;;;;;4986627;28;20053;-66
2023/08/06 06:21:04;;;;;;;5.95;4.82;;;19.00;99.90;;;;;;4990871;28;20046;-66
2023/08/06 06:23:51;;;;;;;6.35;4.97;;;19.10;99.90;;;;;;4987460;28;20057;-66
2023/08/06 06:26:37;;;;;;;6.93;5.75;;;19.10;99.90;;;;;;4987652;28;20053;-66
2023/08/06 06:29:23;;;;;;;8.43;5.90;;;19.10;99.90;;;;;;4985193;28;20082;-65
2023/08/06 06:32:09;;;;;;;7.57;5.97;;;19.10;99.90;;;;;;4989601;28;20162;-69
2023/08/06 06:34:55;;;;;;;7.15;4.80;;;19.10;99.90;;;;;;4988423;28;20042;-68
2023/08/06 06:37:41;;;;;;;5.72;4.68;;;19.10;99.90;;;;;;4989022;28;20121;-66
2023/08/06 06:40:26;;;;;;;6.18;5.00;;;19.10;99.90;;;;;;4978076;28;20123;-67
2023/08/06 06:43:12;;;;;;;6.30;4.80;;;19.10;99.90;;;;;;4980133;28;20054;-67
2023/08/06 06:45:59;;;;;;;7.32;5.60;;;19.10;99.90;;;;;;4995897;28;20099;-66
2023/08/06 06:48:45;;;;;;;8.35;5.32;;;19.10;99.90;;;;;;4987892;28;20034;-66
2023/08/06 06:51:31;;;;;;;6.82;5.38;;;19.10;99.90;;;;;;4988747;28;20483;-66
2023/08/06 06:54:17;;;;;;;6.50;5.50;;;19.20;99.90;;;;;;4990925;28;20035;-67
2023/08/06 06:57:04;;;;;;;7.25;5.28;;;19.20;99.90;;;;;;4990805;28;20484;-67
2023/08/06 06:59:50;;;;;;;8.00;5.10;;;19.30;99.90;;;;;;4989007;28;20046;-66
2023/08/06 07:02:36;;;;;;;7.32;5.45;;;19.30;99.90;;;;;;4991429;28;20065;-65
2023/08/06 07:05:22;;;;;;;6.85;5.45;;;19.30;99.90;;;;;;4987786;28;20034;-65
2023/08/06 07:08:08;;;;;;;6.85;5.20;;;19.40;99.90;;;;;;4988102;28;20046;-64
2023/08/06 07:11:02;;;;;;;7.75;5.32;;;19.40;99.90;;;;;;4990186;28;20042;-65
2023/08/06 07:13:49;;;;;;;7.88;6.03;;;19.50;99.90;;;;;;4962715;28;20097;-64
2023/08/06 07:16:35;;;;;;;7.03;5.25;;;19.50;99.90;;;;;;4990643;28;20042;-64
2023/08/06 07:19:21;;;;;;;7.63;4.68;;;19.60;99.90;;;;;;4985651;28;20046;-64
2023/08/06 07:22:07;;;;;;;7.72;5.40;;;19.60;99.90;;;;;;4986946;28;20144;-64
2023/08/06 07:24:53;;;;;;;7.03;5.47;;;19.70;99.90;;;;;;4971134;28;20211;-64
2023/08/06 07:27:39;;;;;;;5.47;4.57;;;19.80;99.90;;;;;;4988567;28;20054;-64
2023/08/06 07:30:25;;;;;;;6.10;4.60;;;19.80;99.90;;;;;;4985295;28;20045;-64
2023/08/06 07:33:11;;;;;;;5.82;4.55;;;19.90;99.90;;;;;;4983051;28;20105;-64
2023/08/06 07:35:57;;;;;;;7.57;5.15;;;19.90;99.90;;;;;;4990607;28;20129;-64
2023/08/06 07:38:43;;;;;;;7.45;5.28;;;20.00;99.90;;;;;;4977674;28;20047;-63
2023/08/06 07:41:29;;;;;;;6.95;5.18;;;20.00;99.90;;;;;;4974215;28;20054;-63
2023/08/06 07:44:15;;;;;;;5.15;4.35;;;20.10;99.90;;;;;;4976757;28;20042;-65
2023/08/06 07:47:01;;;;;;;6.55;5.00;;;20.10;99.90;;;;;;4989151;28;20057;-64
2023/08/06 07:49:47;;;;;;;6.30;4.68;;;20.20;99.90;;;;;;4986206;28;20389;-64
2023/08/06 07:52:33;;;;;;;6.78;4.90;;;20.20;99.90;;;;;;4986619;28;20042;-64
2023/08/06 07:55:19;;;;;;;5.70;4.53;;;20.20;99.90;;;;;;4991956;28;20403;-64
2023/08/06 07:58:05;;;;;;;5.47;4.38;;;20.20;99.90;;;;;;4985818;28;20049;-64
2023/08/06 08:00:51;;;;;;;5.32;4.35;;;20.10;99.90;;;;;;4989165;28;20049;-65
2023/08/06 08:03:37;;;;;;;6.65;4.20;;;20.10;99.90;;;;;;4983868;28;20467;-66
2023/08/06 08:06:23;;;;;;;5.65;3.97;;;20.10;99.90;;;;;;4979631;28;20046;-64
2023/08/06 08:09:09;;;;;;;6.80;4.18;;;20.10;99.90;;;;;;4988498;28;20046;-67
2023/08/06 08:11:55;;;;;;;5.53;4.28;;;20.10;99.90;;;;;;4986643;28;20070;-68
2023/08/06 08:14:41;;;;;;;6.38;4.53;;;20.10;99.90;;;;;;4982480;28;20455;-67
2023/08/06 08:17:27;;;;;;;4.93;3.70;;;20.10;99.90;;;;;;4984442;28;20112;-67
2023/08/06 08:20:13;;;;;;;4.90;3.70;;;20.20;99.90;;;;;;4988336;28;20126;-67
2023/08/06 08:23:00;;;;;;;5.55;3.88;;;20.20;99.90;;;;;;4986967;28;20503;-69
2023/08/06 08:25:46;;;;;;;6.13;4.07;;;20.20;99.90;;;;;;4990689;28;20042;-71
2023/08/06 08:28:32;;;;;;;5.22;3.65;;;20.20;99.90;;;;;;4976828;28;20046;-73
2023/08/06 08:31:18;;;;;;;6.28;4.25;;;20.20;99.90;;;;;;4987893;28;20038;-70
2023/08/06 08:34:04;;;;;;;7.28;4.88;;;20.20;99.90;;;;;;4987341;28;20042;-70
2023/08/06 08:36:49;;;;;;;6.90;5.03;;;20.30;99.90;;;;;;4990473;28;20046;-69
2023/08/06 08:39:35;;;;;;;5.75;4.10;;;20.20;99.90;;;;;;4985363;28;20038;-71
2023/08/06 08:42:24;;;;;;;5.72;4.13;;;20.20;99.90;;;;;;4984960;28;20092;-72
2023/08/06 08:45:13;;;;;;;6.65;4.85;;;20.30;99.90;;;;;;4989682;28;20505;-72
2023/08/06 08:48:00;;;;;;;6.45;5.28;;;20.40;99.90;;;;;;4986303;28;20034;-75
2023/08/06 08:50:48;;;;;;;6.03;4.72;;;20.40;99.90;;;;;;4987768;28;20058;-69
2023/08/06 08:53:38;;;;;;;7.60;5.03;;;20.50;99.90;;;;;;4983923;28;20125;-73
2023/08/06 08:56:24;;;;;;;6.88;5.30;;;20.50;99.90;;;;;;4990088;28;20618;-75
2023/08/06 08:59:10;;;;;;;8.43;5.05;;;20.60;99.90;;;;;;4984971;28;20034;-72
2023/08/06 09:01:57;;;;;;;7.05;5.28;;;20.60;99.90;;;;;;4989712;28;20050;-72
2023/08/06 09:04:46;;;;;;;6.32;5.07;;;20.60;99.90;;;;;;4989171;28;20483;-72
2023/08/06 09:07:45;;;;;;;6.50;5.43;;;20.70;99.90;;;;;;4990031;28;20038;-72
2023/08/06 09:10:31;;;;;;;7.95;5.70;;;20.80;99.90;;;;;;4983790;28;20100;-72
2023/08/06 09:13:17;;;;;;;6.57;4.97;;;20.80;99.90;;;;;;4984972;28;20736;-72
2023/08/06 09:16:03;;;;;;;7.07;5.15;;;20.90;99.90;;;;;;4984440;28;20042;-72
2023/08/06 09:18:49;;;;;;;6.45;5.40;;;20.90;99.90;;;;;;4982679;28;20046;-71
2023/08/06 09:21:42;;;;;;;8.10;6.10;;;21.00;99.90;;;;;;4986820;28;20061;-68
2023/08/06 09:24:28;;;;;;;8.82;6.38;;;21.00;99.90;;;;;;4982612;28;20116;-70
2023/08/06 09:27:15;;;;;;;10.50;6.07;;;21.00;99.90;;;;;;4985591;28;20042;-70
2023/08/06 09:30:01;;;;;;;8.85;6.32;;;21.10;99.90;;;;;;4989410;28;20419;-70
2023/08/06 09:32:48;;;;;;;8.02;6.07;;;21.00;99.90;;;;;;4978843;28;20051;-70
2023/08/06 09:35:34;;;;;;;7.32;5.30;;;21.10;99.90;;;;;;4988644;28;20042;-69
2023/08/06 09:38:20;;;;;;;11.50;6.32;;;21.10;99.90;;;;;;4986859;28;20578;-69
2023/08/06 09:41:07;;;;;;;8.10;4.95;;;21.10;99.90;;;;;;4979862;28;20053;-69
2023/08/06 09:43:53;;;;;;;7.88;6.18;;;21.10;99.90;;;;;;4978111;28;20491;-69
2023/08/06 09:46:39;;;;;;;6.60;5.15;;;21.20;99.90;;;;;;4981355;28;20500;-68
2023/08/06 09:49:36;;;;;;;8.68;5.53;;;21.10;99.90;;;;;;4979579;28;20058;-68
2023/08/06 09:52:22;;;;;;;9.50;6.10;;;21.10;99.90;;;;;;4988887;28;20046;-68
2023/08/06 09:55:14;;;;;;;7.22;5.30;;;21.10;99.90;;;;;;4988976;28;20037;-69
2023/08/06 09:58:00;;;;;;;9.32;6.47;;;21.10;99.90;;;;;;4986994;28;20543;-68
2023/08/06 10:00:46;;;;;;;7.72;6.05;;;21.10;99.90;;;;;;4989876;28;20065;-69
2023/08/06 10:03:33;;;;;;;6.55;5.43;;;21.10;99.90;;;;;;4983030;28;20408;-70
2023/08/06 10:06:22;;;;;;;8.38;6.28;;;21.10;99.90;;;;;;4975985;28;20713;-72
2023/08/06 10:09:09;;;;;;;12.45;7.93;;;21.10;99.90;;;;;;4985751;28;20388;-71
2023/08/06 10:11:56;;;;;;;9.82;7.78;;;21.00;99.90;;;;;;4985951;28;20513;-74
2023/08/06 10:14:44;;;;;;;11.90;8.85;;;20.80;99.90;;;;;;4991566;28;20042;-74
2023/08/06 10:17:32;;;;;;;10.45;7.03;;;20.80;99.90;;;;;;4991603;28;20047;-74
2023/08/06 10:20:21;;;;;;;9.40;5.80;;;20.80;99.90;;;;;;4990874;28;20496;-75
2023/08/06 10:23:07;;;;;;;6.88;5.43;;;20.70;99.90;;;;;;4987841;28;20050;-75
2023/08/06 10:25:55;;;;;;;7.60;6.28;;;20.70;99.90;;;;;;4990676;28;20113;-74
2023/08/06 10:28:41;;;;;;;11.15;6.40;;;20.60;99.90;;;;;;4988725;28;20407;-74
2023/08/06 10:31:54;;;;;;;6.85;5.18;;;20.60;99.90;;;;;;4996779;28;20046;-74
2023/08/06 10:35:00;;;;;;;8.10;4.90;;;20.50;99.90;;;;;;4975533;28;20046;-74
2023/08/06 10:37:47;;;;;;;10.07;5.43;;;20.50;99.90;;;;;;4989653;28;20771;-74
2023/08/06 10:40:33;;;;;;;6.63;4.82;;;20.40;99.90;;;;;;4989082;28;20050;-74
2023/08/06 10:43:30;;;;;;;6.40;4.43;;;20.40;99.90;;;;;;4991093;28;20138;-74
2023/08/06 10:46:26;;;;;;;8.57;6.45;;;20.40;99.90;;;;;;4989395;28;20047;-75
2023/08/06 10:49:17;;;;;;;10.25;6.68;;;20.40;99.90;;;;;;4988677;28;20046;-74
2023/08/06 10:52:03;;;;;;;12.55;7.60;;;20.40;99.90;;;;;;4985693;28;20476;-68
2023/08/06 10:54:49;;;;;;;7.75;5.72;;;20.40;99.90;;;;;;4985030;28;20055;-68
2023/08/06 10:57:35;;;;;;;9.00;6.53;;;20.50;99.90;;;;;;4982088;28;20039;-68
2023/08/06 11:00:24;;;;;;;6.38;4.88;;;20.50;99.90;;;;;;4979793;28;20076;-68
2023/08/06 11:03:10;;;;;;;9.25;5.90;;;20.60;99.90;;;;;;4982663;28;20116;-68
2023/08/06 11:05:56;;;;;;;5.25;4.07;;;20.60;99.90;;;;;;4987636;28;20038;-68
2023/08/06 11:08:48;;;;;;;10.32;6.97;;;20.60;99.90;;;;;;4984089;28;20411;-68
2023/08/06 11:11:34;;;;;;;23.17;12.90;;;20.60;99.90;;;;;;4993564;28;20526;-68
2023/08/06 11:14:21;;;;;;;38.50;18.55;;;20.60;99.90;;;;;;4986107;28;20053;-67
2023/08/06 11:17:08;;;;;;;8.82;5.47;;;20.70;99.90;;;;;;4981876;28;20050;-67
2023/08/06 11:19:54;;;;;;;12.75;8.00;;;20.80;99.90;;;;;;4984671;28;20074;-68
2023/08/06 11:22:40;;;;;;;8.43;5.90;;;20.90;99.90;;;;;;4990141;28;20055;-69
2023/08/06 11:25:26;;;;;;;9.90;5.95;;;20.90;99.90;;;;;;4987942;28;20980;-69
2023/08/06 11:28:12;;;;;;;12.27;7.55;;;20.90;99.90;;;;;;4987198;28;20550;-68
2023/08/06 11:31:02;;;;;;;6.63;4.82;;;20.90;99.90;;;;;;4989693;28;20153;-68
2023/08/06 11:33:50;;;;;;;5.80;4.03;;;21.00;99.90;;;;;;4990014;28;20133;-68
2023/08/06 11:36:40;;;;;;;5.80;4.57;;;20.90;99.90;;;;;;4989435;28;20038;-68
2023/08/06 11:39:26;;;;;;;5.18;4.00;;;20.90;99.90;;;;;;4988859;28;20042;-69
2023/08/06 11:42:12;;;;;;;4.95;4.03;;;20.90;99.90;;;;;;4989763;28;20455;-69
2023/08/06 11:44:59;;;;;;;6.35;4.15;;;21.00;99.90;;;;;;4989669;28;20042;-69
2023/08/06 11:47:52;;;;;;;6.53;4.68;;;21.00;99.90;;;;;;4988855;28;20783;-68
2023/08/06 11:50:38;;;;;;;5.72;4.47;;;21.00;99.90;;;;;;4989746;28;20050;-68
2023/08/06 11:53:27;;;;;;;6.05;4.43;;;21.00;99.90;;;;;;4990703;28;20046;-69
2023/08/06 11:56:14;;;;;;;6.55;4.72;;;21.00;99.90;;;;;;4989487;28;20085;-68
2023/08/06 11:59:00;;;;;;;6.55;5.43;;;21.00;99.90;;;;;;4990408;28;20529;-68
2023/08/06 12:01:46;;;;;;;6.88;4.53;;;21.00;99.90;;;;;;4977729;28;20062;-68
2023/08/06 12:04:57;;;;;;;7.03;4.57;;;21.00;99.90;;;;;;4986554;28;20101;-68
2023/08/06 12:07:52;;;;;;;6.78;4.57;;;21.10;99.90;;;;;;4983435;28;20134;-68
2023/08/06 12:10:38;;;;;;;;;;;21.10;99.90;;;;;;4989982;28;20499;-68
2023/08/06 12:13:24;;;;;;;6.05;4.25;;;21.10;99.90;;;;;;4990370;28;19913;-68
2023/08/06 12:16:10;;;;;;;6.47;4.30;;;21.10;99.90;;;;;;4983046;28;20027;-68
2023/08/06 12:18:56;;;;;;;8.88;4.82;;;21.10;99.90;;;;;;4984496;28;20121;-68
2023/08/06 12:21:42;;;;;;;6.70;4.80;;;21.10;99.90;;;;;;4986576;28;20089;-69
2023/08/06 12:24:31;;;;;;;7.75;5.65;;;21.20;99.90;;;;;;4982885;28;20038;-68
2023/08/06 12:27:17;;;;;;;8.85;5.43;;;21.20;99.90;;;;;;4975123;28;20403;-69
2023/08/06 12:30:05;;;;;;;7.82;5.40;;;21.30;99.90;;;;;;4988338;28;20049;-67
2023/08/06 12:32:51;;;;;;;7.05;4.88;;;21.30;99.90;;;;;;4986668;28;20451;-67
2023/08/06 12:35:38;;;;;;;8.23;5.75;;;21.30;99.90;;;;;;4980319;28;20038;-68
2023/08/06 12:38:24;;;;;;;9.05;5.53;;;21.30;99.90;;;;;;4986852;28;20042;-68
2023/08/06 12:41:10;;;;;;;9.15;5.78;;;21.30;99.90;;;;;;4987767;28;20508;-68
2023/08/06 12:43:56;;;;;;;9.48;6.38;;;21.30;99.90;;;;;;4984805;28;20523;-68
2023/08/06 12:46:42;;;;;;;7.90;5.70;;;21.30;99.90;;;;;;4980885;28;20113;-67
2023/08/06 12:49:28;;;;;;;11.13;6.05;;;21.20;99.90;;;;;;4979069;28;20101;-68
2023/08/06 12:52:15;;;;;;;8.20;6.30;;;21.20;99.90;;;;;;4989197;28;20076;-68
2023/08/06 12:55:01;;;;;;;8.50;6.10;;;21.20;99.90;;;;;;4988540;28;20046;-68
2023/08/06 12:57:47;;;;;;;8.05;6.72;;;21.10;99.90;;;;;;4985089;28;20042;-68
2023/08/06 13:00:34;;;;;;;9.25;6.88;;;21.10;99.90;;;;;;4989424;28;20125;-68
2023/08/06 13:03:19;;;;;;;9.10;5.72;;;21.10;99.90;;;;;;4987980;28;20057;-68
2023/08/06 13:06:05;;;;;;;7.10;5.38;;;21.10;99.90;;;;;;4984680;28;20097;-67
2023/08/06 13:08:51;;;;;;;8.52;5.57;;;21.10;99.90;;;;;;4990993;28;20475;-67
2023/08/06 13:11:39;;;;;;;10.38;6.32;;;21.10;99.90;;;;;;4987745;28;20408;-71
2023/08/06 13:14:25;;;;;;;7.45;5.70;;;21.10;99.90;;;;;;4978810;28;20043;-71
2023/08/06 13:17:11;;;;;;;10.15;7.13;;;21.10;99.90;;;;;;4991308;28;20042;-72
2023/08/06 13:19:57;;;;;;;8.85;5.93;;;21.10;99.90;;;;;;4988512;28;20479;-68
2023/08/06 13:22:46;;;;;;;7.10;5.32;;;21.00;99.90;;;;;;4988938;28;20058;-67
2023/08/06 13:25:36;;;;;;;6.78;5.13;;;21.00;99.90;;;;;;4975031;28;20419;-71
2023/08/06 13:28:22;;;;;;;8.00;5.82;;;21.00;99.90;;;;;;4989289;28;20415;-69
2023/08/06 13:31:08;;;;;;;7.13;5.72;;;21.00;99.90;;;;;;4990882;28;20452;-73
2023/08/06 13:33:57;;;;;;;9.50;5.97;;;21.00;99.90;;;;;;4988912;28;20085;-68
2023/08/06 13:36:43;;;;;;;10.23;6.20;;;20.90;99.90;;;;;;4988576;28;20038;-68
2023/08/06 13:39:29;;;;;;;8.05;6.00;;;20.90;99.90;;;;;;4988670;28;20049;-71
2023/08/06 13:42:15;;;;;;;8.55;6.10;;;20.80;99.90;;;;;;4988073;28;20050;-72
2023/08/06 13:45:03;;;;;;;13.70;6.82;;;20.70;99.90;;;;;;4988604;28;20169;-72
2023/08/06 13:47:49;;;;;;;10.32;6.07;;;20.60;99.90;;;;;;4986977;28;20558;-67
2023/08/06 13:50:36;;;;;;;9.52;6.05;;;20.60;99.90;;;;;;4988788;28;20054;-68
2023/08/06 13:53:22;;;;;;;9.10;6.32;;;20.60;99.90;;;;;;4987266;28;20065;-68
2023/08/06 13:56:10;;;;;;;9.80;6.20;;;20.50;99.90;;;;;;4986720;28;20050;-70
2023/08/06 13:58:56;;;;;;;7.68;5.60;;;20.50;99.90;;;;;;4984842;28;20096;-69
2023/08/06 14:01:42;;;;;;;6.93;5.07;;;20.50;99.90;;;;;;4987863;28;20051;-69
2023/08/06 14:04:28;;;;;;;7.97;5.45;;;20.50;99.90;;;;;;4979384;28;20035;-68
2023/08/06 14:07:14;;;;;;;7.63;5.97;;;20.50;99.90;;;;;;4988074;28;20045;-67
2023/08/06 14:10:00;;;;;;;8.88;5.93;;;20.50;99.90;;;;;;4989734;28;20090;-70
2023/08/06 14:12:46;;;;;;;8.40;5.90;;;20.50;99.90;;;;;;4985821;28;20089;-70
2023/08/06 14:15:33;;;;;;;7.45;5.80;;;20.50;99.90;;;;;;4980559;28;20039;-70
2023/08/06 14:18:19;;;;;;;8.07;6.20;;;20.50;99.90;;;;;;4981537;28;20073;-70
2023/08/06 14:21:05;;;;;;;10.13;6.43;;;20.50;99.90;;;;;;4976780;28;20053;-70
2023/08/06 14:23:51;;;;;;;9.02;6.20;;;20.50;99.90;;;;;;4978054;28;20073;-69
2023/08/06 14:26:37;;;;;;;13.40;7.00;;;20.40;99.90;;;;;;4985836;28;20057;-69
2023/08/06 14:29:23;;;;;;;11.93;6.68;;;20.50;99.90;;;;;;4983641;28;20089;-69
2023/08/06 14:32:09;;;;;;;8.50;4.70;;;20.50;99.90;;;;;;4986938;28;20097;-69
2023/08/06 14:34:55;;;;;;;6.20;3.50;;;20.40;99.90;;;;;;4982178;28;20110;-69
2023/08/06 14:37:41;;;;;;;6.70;3.53;;;20.30;99.90;;;;;;4984956;28;20081;-69
2023/08/06 14:40:33;;;;;;;9.07;3.97;;;20.20;99.90;;;;;;4987366;28;20076;-70
2023/08/06 14:43:19;;;;;;;7.80;3.90;;;20.10;99.90;;;;;;4974726;28;20550;-69
2023/08/06 14:46:05;;;;;;;7.70;4.60;;;20.10;99.90;;;;;;4973296;28;20051;-70
2023/08/06 14:48:51;;;;;;;8.80;4.65;;;20.00;99.90;;;;;;4978457;28;20058;-69
2023/08/06 14:51:38;;;;;;;7.18;5.07;;;20.00;99.90;;;;;;4978056;28;20450;-69
2023/08/06 14:54:24;;;;;;;9.60;5.55;;;20.00;99.90;;;;;;4985097;28;20400;-70
2023/08/06 14:57:10;;;;;;;7.75;5.47;;;20.10;99.90;;;;;;4976309;28;20038;-70
2023/08/06 14:59:56;;;;;;;7.45;4.10;;;20.00;99.90;;;;;;4990065;28;20121;-70
2023/08/06 15:02:42;;;;;;;9.57;5.03;;;20.00;99.90;;;;;;4991857;28;20065;-70
2023/08/06 15:05:28;;;;;;;5.50;3.97;;;20.00;99.90;;;;;;4991203;28;20062;-70
2023/08/06 15:08:14;;;;;;;6.32;4.10;;;20.00;99.90;;;;;;4989217;28;20047;-70
2023/08/06 15:11:02;;;;;;;6.78;4.28;;;20.00;99.90;;;;;;4986067;28;20046;-70
2023/08/06 15:13:48;;;;;;;5.53;3.80;;;20.00;99.90;;;;;;4991280;28;20050;-71
2023/08/06 15:16:34;;;;;;;8.15;3.60;;;20.00;99.90;;;;;;4991853;28;20034;-71
2023/08/06 15:19:20;;;;;;;6.97;3.38;;;20.00;99.90;;;;;;4980487;28;20043;-71
2023/08/06 15:22:06;;;;;;;5.13;2.67;;;20.00;99.90;;;;;;4986244;28;20057;-71
2023/08/06 15:24:52;;;;;;;5.80;3.22;;;19.90;99.90;;;;;;4985419;28;21118;-71
2023/08/06 15:27:39;;;;;;;3.92;2.78;;;19.90;99.90;;;;;;4990662;28;20038;-71
2023/08/06 15:30:25;;;;;;;5.82;2.83;;;19.90;99.90;;;;;;4999444;28;20041;-71
2023/08/06 15:33:11;;;;;;;3.90;2.47;;;19.90;99.90;;;;;;4988008;28;20497;-70
2023/08/06 15:35:57;;;;;;;4.68;2.70;;;19.80;99.90;;;;;;4981080;28;20085;-71
2023/08/06 15:38:43;;;;;;;3.72;2.13;;;19.70;99.90;;;;;;4989733;28;20049;-71
2023/08/06 15:41:29;;;;;;;5.45;2.80;;;19.70;99.90;;;;;;4991367;28;20034;-71
2023/08/06 15:44:15;;;;;;;3.97;2.60;;;19.70;99.90;;;;;;4994600;28;20065;-70
2023/08/06 15:47:01;;;;;;;5.10;2.78;;;19.60;99.90;;;;;;4992931;28;20548;-70
2023/08/06 15:49:47;;;;;;;4.13;2.55;;;19.60;99.90;;;;;;4987949;28;20061;-71
2023/08/06 15:52:33;;;;;;;4.07;2.63;;;19.50;99.90;;;;;;4992322;28;20047;-71
2023/08/06 15:55:19;;;;;;;3.88;2.78;;;19.50;99.90;;;;;;4982181;28;20050;-71